Time;durP1;ratioP1;P1;durP2;ratioP2;P2;SDS_P1;SDS_P2;PMS_P1;PMS_P2;Temp;Humidity;BMP_temperature;BMP_pressure;BME280_temperature;BME280_humidity;BME280_pressure;Samples;Min_cycle;Max_cycle;Signal;HPM_P1;HPM_P2
2021/05/15 00:01:49;;;;;;;8.43;2.60;;;;;;;;;;5020145;28;20710;-68
2021/05/15 00:04:15;;;;;;;9.65;2.00;;;;;;;;;;4988586;28;20037;-68
2021/05/15 00:06:42;;;;;;;4.78;2.20;;;;;;;;;;4988545;28;20030;-68
2021/05/15 00:09:08;;;;;;;7.38;2.45;;;;;;;;;;4988441;28;20015;-68
2021/05/15 00:11:35;;;;;;;6.80;2.03;;;;;;;;;;4988638;28;20356;-70
2021/05/15 00:14:01;;;;;;;5.38;2.15;;;;;;;;;;4988569;28;20076;-72
2021/05/15 00:16:27;;;;;;;5.35;2.05;;;;;;;;;;4988516;28;20030;-71
2021/05/15 00:18:53;;;;;;;7.63;1.58;;;;;;;;;;5019971;28;20038;-71
2021/05/15 00:21:19;;;;;;;7.60;2.45;;;;;;;;;;5019709;28;20030;-70
2021/05/15 00:23:45;;;;;;;5.90;2.03;;;;;;;;;;5002995;28;20391;-73
2021/05/15 00:26:14;;;;;;;6.13;2.53;;;;;;;;;;5007317;28;20078;-72
2021/05/15 00:28:40;;;;;;;6.65;2.10;;;;;;;;;;5011495;28;20041;-73
2021/05/15 00:31:06;;;;;;;4.18;1.70;;;;;;;;;;5010149;28;20026;-71
2021/05/15 00:33:32;;;;;;;3.92;1.83;;;;;;;;;;5011117;28;20018;-72
2021/05/15 00:35:58;;;;;;;4.30;1.70;;;;;;;;;;5009731;28;20053;-71
2021/05/15 00:38:24;;;;;;;4.65;2.08;;;;;;;;;;5009921;28;20450;-74
2021/05/15 00:40:51;;;;;;;4.70;1.70;;;;;;;;;;5011090;28;20030;-73
2021/05/15 00:43:18;;;;;;;4.72;1.70;;;;;;;;;;5011052;28;20056;-69
2021/05/15 00:45:44;;;;;;;4.85;1.83;;;;;;;;;;5005934;28;20022;-69
2021/05/15 00:48:10;;;;;;;4.70;1.90;;;;;;;;;;4991222;28;20033;-71
2021/05/15 00:50:36;;;;;;;5.60;1.83;;;;;;;;;;5023271;28;20019;-73
2021/05/15 00:53:03;;;;;;;7.43;1.83;;;;;;;;;;4991493;28;20026;-68
2021/05/15 00:55:29;;;;;;;5.95;1.52;;;;;;;;;;4991656;28;20120;-67
2021/05/15 00:57:55;;;;;;;4.82;1.52;;;;;;;;;;4991847;28;20080;-66
2021/05/15 01:00:22;;;;;;;9.70;1.90;;;;;;;;;;5023157;28;20405;-66
2021/05/15 01:02:48;;;;;;;5.93;1.60;;;;;;;;;;5023270;28;20106;-68
2021/05/15 01:05:15;;;;;;;6.88;2.03;;;;;;;;;;4991150;28;20050;-70
2021/05/15 01:07:43;;;;;;;7.18;1.90;;;;;;;;;;5024974;28;20037;-72
2021/05/15 01:10:10;;;;;;;3.00;1.40;;;;;;;;;;5010569;28;20014;-70
2021/05/15 01:12:44;;;;;;;4.85;1.60;;;;;;;;;;4996549;28;20123;-72
2021/05/15 01:15:10;;;;;;;5.13;1.80;;;;;;;;;;4991418;28;20006;-71
2021/05/15 01:17:37;;;;;;;5.55;1.80;;;;;;;;;;4991353;28;20030;-72
2021/05/15 01:20:03;;;;;;;3.47;1.65;;;;;;;;;;4989947;28;20026;-72
2021/05/15 01:22:31;;;;;;;3.92;1.48;;;;;;;;;;4991605;28;20084;-69
2021/05/15 01:24:58;;;;;;;4.45;1.60;;;;;;;;;;4989907;28;20025;-72
2021/05/15 01:27:24;;;;;;;3.92;1.77;;;;;;;;;;4990730;28;20054;-67
2021/05/15 01:29:51;;;;;;;4.55;1.55;;;;;;;;;;4990640;28;20402;-67
2021/05/15 01:32:17;;;;;;;5.28;1.70;;;;;;;;;;4990636;28;20010;-67
2021/05/15 01:34:43;;;;;;;4.25;1.60;;;;;;;;;;4989134;28;20491;-67
2021/05/15 01:37:10;;;;;;;8.48;1.50;;;;;;;;;;4988476;28;20034;-66
2021/05/15 01:39:36;;;;;;;4.70;1.58;;;;;;;;;;4990410;28;20030;-67
2021/05/15 01:42:02;;;;;;;3.55;1.50;;;;;;;;;;4990714;28;20515;-67
2021/05/15 01:44:31;;;;;;;6.68;1.83;;;;;;;;;;4989395;28;20023;-66
2021/05/15 01:46:57;;;;;;;3.28;1.30;;;;;;;;;;4990315;28;20027;-66
2021/05/15 01:49:23;;;;;;;5.18;1.65;;;;;;;;;;4990515;28;20034;-66
2021/05/15 01:51:49;;;;;;;2.80;1.40;;;;;;;;;;4990393;28;20609;-66
2021/05/15 01:54:15;;;;;;;4.03;1.40;;;;;;;;;;4990526;28;20096;-66
2021/05/15 01:56:41;;;;;;;9.70;1.98;;;;;;;;;;4990487;28;20034;-67
2021/05/15 01:59:08;;;;;;;10.00;2.13;;;;;;;;;;4990326;28;20018;-66
2021/05/15 02:01:35;;;;;;;5.75;2.05;;;;;;;;;;5021649;28;20487;-67
2021/05/15 02:04:02;;;;;;;2.90;1.35;;;;;;;;;;4990247;28;20068;-67
2021/05/15 02:06:28;;;;;;;3.08;1.30;;;;;;;;;;5021732;28;20108;-66
2021/05/15 02:08:54;;;;;;;3.72;1.70;;;;;;;;;;4990335;28;20018;-67
2021/05/15 02:11:20;;;;;;;3.80;1.60;;;;;;;;;;5021436;28;20030;-66
2021/05/15 02:13:47;;;;;;;5.43;1.60;;;;;;;;;;5021606;28;20446;-66
2021/05/15 02:16:14;;;;;;;4.22;1.42;;;;;;;;;;4989987;28;20036;-66
2021/05/15 02:18:40;;;;;;;2.88;1.35;;;;;;;;;;4990059;28;20022;-67
2021/05/15 02:21:07;;;;;;;2.88;1.30;;;;;;;;;;4990018;28;20023;-67
2021/05/15 02:23:33;;;;;;;4.97;1.83;;;;;;;;;;4990015;28;20030;-66
2021/05/15 02:25:59;;;;;;;6.07;1.67;;;;;;;;;;4990059;28;20026;-66
2021/05/15 02:28:25;;;;;;;3.90;1.70;;;;;;;;;;4989709;28;20022;-66
2021/05/15 02:30:52;;;;;;;3.75;1.40;;;;;;;;;;5021239;28;20388;-67
2021/05/15 02:33:18;;;;;;;3.55;1.40;;;;;;;;;;5021049;28;20033;-66
2021/05/15 02:35:45;;;;;;;4.20;1.60;;;;;;;;;;4989345;28;20490;-66
2021/05/15 02:38:12;;;;;;;4.57;1.55;;;;;;;;;;4989837;28;20060;-66
2021/05/15 02:40:38;;;;;;;3.13;1.30;;;;;;;;;;4989705;28;20026;-67
2021/05/15 02:43:04;;;;;;;2.60;1.30;;;;;;;;;;4989584;28;20490;-70
2021/05/15 02:45:31;;;;;;;9.80;1.60;;;;;;;;;;4989313;28;20050;-66
2021/05/15 02:47:57;;;;;;;3.38;1.35;;;;;;;;;;5021424;28;20021;-66
2021/05/15 02:50:23;;;;;;;3.22;1.40;;;;;;;;;;4989320;28;20114;-66
2021/05/15 02:52:50;;;;;;;4.55;1.42;;;;;;;;;;4989571;28;20349;-66
2021/05/15 02:55:18;;;;;;;3.40;1.42;;;;;;;;;;5020828;28;20096;-66
2021/05/15 02:57:44;;;;;;;9.52;1.60;;;;;;;;;;4989506;28;20026;-67
2021/05/15 03:00:12;;;;;;;6.20;1.50;;;;;;;;;;5021028;28;20133;-67
2021/05/15 03:02:39;;;;;;;3.13;1.50;;;;;;;;;;4989427;28;20023;-66
2021/05/15 03:05:06;;;;;;;2.83;1.30;;;;;;;;;;4989473;28;20382;-66
2021/05/15 03:07:32;;;;;;;4.75;1.38;;;;;;;;;;4989421;28;20080;-66
2021/05/15 03:09:58;;;;;;;3.60;1.45;;;;;;;;;;4989385;28;20101;-66
2021/05/15 03:12:24;;;;;;;3.10;1.40;;;;;;;;;;5026270;28;20053;-67
2021/05/15 03:14:50;;;;;;;2.75;1.50;;;;;;;;;;5040582;28;20034;-67
2021/05/15 03:17:16;;;;;;;2.80;1.42;;;;;;;;;;5008702;28;20030;-67
2021/05/15 03:19:42;;;;;;;3.00;1.35;;;;;;;;;;5008751;28;20014;-66
2021/05/15 03:22:09;;;;;;;2.97;1.20;;;;;;;;;;5008594;28;20059;-67
2021/05/15 03:24:35;;;;;;;3.35;1.33;;;;;;;;;;5008711;28;20485;-66
2021/05/15 03:27:01;;;;;;;2.42;1.23;;;;;;;;;;5008690;28;20030;-67
2021/05/15 03:29:27;;;;;;;3.30;1.48;;;;;;;;;;5040375;28;20079;-67
2021/05/15 03:31:54;;;;;;;4.88;1.52;;;;;;;;;;5008776;28;20029;-66
2021/05/15 03:34:20;;;;;;;3.15;1.45;;;;;;;;;;5008484;28;20132;-66
2021/05/15 03:36:46;;;;;;;3.95;1.30;;;;;;;;;;5040352;28;20034;-66
2021/05/15 03:39:18;;;;;;;2.65;1.27;;;;;;;;;;5040179;28;20427;-66
2021/05/15 03:41:44;;;;;;;3.67;1.58;;;;;;;;;;5008413;28;20018;-66
2021/05/15 03:44:10;;;;;;;2.45;1.27;;;;;;;;;;5008490;28;20026;-67
2021/05/15 03:46:36;;;;;;;2.92;1.30;;;;;;;;;;5008132;28;20514;-67
2021/05/15 03:49:03;;;;;;;2.65;1.20;;;;;;;;;;5008265;28;20022;-67
2021/05/15 03:51:29;;;;;;;2.95;1.30;;;;;;;;;;5040010;28;20053;-66
2021/05/15 03:53:55;;;;;;;2.40;1.20;;;;;;;;;;5000670;28;20030;-66
2021/05/15 03:56:21;;;;;;;4.40;1.42;;;;;;;;;;4988672;28;20080;-66
2021/05/15 03:58:47;;;;;;;4.68;1.52;;;;;;;;;;4988829;28;20037;-67
2021/05/15 04:01:14;;;;;;;3.42;1.50;;;;;;;;;;4989762;28;20026;-67
2021/05/15 04:03:40;;;;;;;2.35;1.10;;;;;;;;;;4992109;28;20068;-66
2021/05/15 04:06:06;;;;;;;2.65;1.20;;;;;;;;;;4992073;28;20482;-67
2021/05/15 04:08:32;;;;;;;4.75;1.40;;;;;;;;;;4990683;28;20026;-67
2021/05/15 04:10:58;;;;;;;2.10;1.17;;;;;;;;;;4991983;28;20051;-75
2021/05/15 04:16:00;;;;;;;3.05;1.23;;;;;;;;;;4991974;28;20026;-67
2021/05/15 04:18:28;;;;;;;3.60;1.25;;;;;;;;;;4990604;28;20029;-66
2021/05/15 04:20:55;;;;;;;3.60;1.40;;;;;;;;;;4991665;28;20026;-66
2021/05/15 04:23:21;;;;;;;3.13;1.33;;;;;;;;;;4991715;28;20033;-68
2021/05/15 04:25:47;;;;;;;3.78;1.23;;;;;;;;;;4991535;28;20105;-68
2021/05/15 04:28:14;;;;;;;2.58;1.33;;;;;;;;;;4991792;28;20075;-68
2021/05/15 04:30:40;;;;;;;4.78;1.80;;;;;;;;;;4991512;28;20087;-66
2021/05/15 04:33:06;;;;;;;3.20;1.30;;;;;;;;;;4991880;28;20058;-67
2021/05/15 04:35:32;;;;;;;7.47;1.45;;;;;;;;;;4990289;28;20053;-67
2021/05/15 04:37:59;;;;;;;3.80;1.48;;;;;;;;;;4990257;28;20030;-67
2021/05/15 04:40:25;;;;;;;3.45;1.65;;;;;;;;;;4991647;28;20045;-67
2021/05/15 04:42:52;;;;;;;3.45;1.30;;;;;;;;;;4990012;28;20404;-67
2021/05/15 04:45:18;;;;;;;2.95;1.40;;;;;;;;;;4991421;28;20018;-67
2021/05/15 04:47:44;;;;;;;3.47;1.45;;;;;;;;;;5022783;28;20030;-67
2021/05/15 04:50:11;;;;;;;3.78;1.52;;;;;;;;;;5022763;28;20429;-66
2021/05/15 04:52:38;;;;;;;3.35;1.50;;;;;;;;;;4991297;28;20022;-67
2021/05/15 04:55:05;;;;;;;3.90;1.45;;;;;;;;;;4991352;28;20387;-67
2021/05/15 04:57:31;;;;;;;5.32;1.30;;;;;;;;;;4991276;28;20073;-67
2021/05/15 04:59:57;;;;;;;5.35;1.27;;;;;;;;;;5022535;28;20075;-67
2021/05/15 05:02:23;;;;;;;3.13;1.20;;;;;;;;;;4991039;28;20030;-67
2021/05/15 05:04:49;;;;;;;3.60;1.40;;;;;;;;;;4990904;28;20034;-68
2021/05/15 05:07:15;;;;;;;2.50;1.20;;;;;;;;;;4991120;28;20057;-68
2021/05/15 05:09:41;;;;;;;2.47;1.15;;;;;;;;;;4991174;28;20363;-67
2021/05/15 05:12:11;;;;;;;3.97;1.40;;;;;;;;;;4990574;28;20030;-67
2021/05/15 05:14:38;;;;;;;2.42;1.20;;;;;;;;;;4992304;28;20032;-67
2021/05/15 05:17:05;;;;;;;3.33;1.23;;;;;;;;;;4989699;28;20040;-67
2021/05/15 05:19:31;;;;;;;5.03;1.42;;;;;;;;;;4989710;28;20037;-67
2021/05/15 05:21:59;;;;;;;2.42;1.02;;;;;;;;;;4991014;28;20033;-68
2021/05/15 05:24:25;;;;;;;5.82;1.10;;;;;;;;;;4989777;28;20029;-67
2021/05/15 05:26:51;;;;;;;4.15;1.35;;;;;;;;;;4990915;28;20516;-68
2021/05/15 05:29:17;;;;;;;6.35;1.35;;;;;;;;;;4990726;28;20018;-68
2021/05/15 05:31:44;;;;;;;3.78;1.05;;;;;;;;;;4989532;28;20031;-69
2021/05/15 05:34:11;;;;;;;3.13;1.23;;;;;;;;;;4990680;28;20076;-67
2021/05/15 05:36:38;;;;;;;3.88;1.27;;;;;;;;;;4989299;28;20038;-68
2021/05/15 05:39:08;;;;;;;3.03;1.10;;;;;;;;;;4990637;28;20029;-67
2021/05/15 05:41:34;;;;;;;3.42;1.60;;;;;;;;;;4989438;28;20033;-68
2021/05/15 05:44:00;;;;;;;5.00;1.38;;;;;;;;;;4990986;28;20105;-67
2021/05/15 05:46:26;;;;;;;3.53;1.50;;;;;;;;;;4989138;28;20026;-67
2021/05/15 05:48:52;;;;;;;5.18;1.35;;;;;;;;;;4990510;28;20041;-67
2021/05/15 05:51:18;;;;;;;3.85;1.52;;;;;;;;;;4990552;28;20098;-67
2021/05/15 05:53:44;;;;;;;3.42;1.40;;;;;;;;;;4990505;28;20426;-68
2021/05/15 05:56:10;;;;;;;3.15;1.23;;;;;;;;;;4990416;28;20045;-67
2021/05/15 05:58:36;;;;;;;5.15;1.33;;;;;;;;;;4990401;28;20054;-67
2021/05/15 06:01:03;;;;;;;2.70;1.02;;;;;;;;;;4990352;28;20510;-67
2021/05/15 06:03:29;;;;;;;5.00;1.40;;;;;;;;;;4990350;28;20038;-68
2021/05/15 06:05:55;;;;;;;3.10;1.45;;;;;;;;;;4988992;28;20018;-67
2021/05/15 06:08:21;;;;;;;3.60;1.40;;;;;;;;;;4990213;28;20031;-67
2021/05/15 06:10:47;;;;;;;7.32;1.23;;;;;;;;;;4988770;28;20030;-68
2021/05/15 06:13:14;;;;;;;2.92;1.30;;;;;;;;;;4990271;28;20031;-68
2021/05/15 06:15:41;;;;;;;3.22;1.10;;;;;;;;;;4992965;28;20026;-67
2021/05/15 06:18:07;;;;;;;2.65;1.08;;;;;;;;;;5030106;28;20045;-68
2021/05/15 06:20:33;;;;;;;2.47;1.20;;;;;;;;;;5041283;28;20053;-68
2021/05/15 06:22:59;;;;;;;2.88;1.00;;;;;;;;;;5025859;28;20022;-67
2021/05/15 06:25:25;;;;;;;3.53;1.30;;;;;;;;;;4989083;28;20052;-68
2021/05/15 06:27:52;;;;;;;5.18;1.30;;;;;;;;;;4989707;28;20105;-68
2021/05/15 06:30:18;;;;;;;3.17;1.08;;;;;;;;;;4989821;28;20027;-68
2021/05/15 06:32:44;;;;;;;3.58;1.25;;;;;;;;;;5021108;28;20033;-68
2021/05/15 06:35:10;;;;;;;6.05;1.13;;;;;;;;;;5004732;28;20049;-68
2021/05/15 06:37:37;;;;;;;2.42;1.10;;;;;;;;;;5009187;28;20033;-68
2021/05/15 06:40:04;;;;;;;4.85;1.40;;;;;;;;;;5040797;28;20546;-67
2021/05/15 06:42:30;;;;;;;4.43;1.20;;;;;;;;;;5009093;28;20155;-68
2021/05/15 06:44:56;;;;;;;3.17;1.20;;;;;;;;;;5009099;28;20029;-68
2021/05/15 06:47:22;;;;;;;4.40;1.02;;;;;;;;;;5040593;28;20018;-70
2021/05/15 06:49:49;;;;;;;2.75;1.10;;;;;;;;;;5040831;28;20026;-67
2021/05/15 06:52:16;;;;;;;6.45;1.00;;;;;;;;;;5009077;28;20026;-68
2021/05/15 06:54:42;;;;;;;2.72;1.00;;;;;;;;;;5040561;28;20022;-68
2021/05/15 06:57:08;;;;;;;5.13;1.27;;;;;;;;;;5040697;28;20436;-68
2021/05/15 06:59:34;;;;;;;6.50;1.10;;;;;;;;;;5009138;28;20022;-68
2021/05/15 07:02:01;;;;;;;5.30;1.65;;;;;;;;;;5009066;28;20033;-68
2021/05/15 07:04:27;;;;;;;3.15;1.00;;;;;;;;;;5008813;28;20030;-68
2021/05/15 07:06:53;;;;;;;2.45;1.00;;;;;;;;;;5008541;28;20591;-69
2021/05/15 07:09:19;;;;;;;1.98;0.95;;;;;;;;;;5008828;28;20067;-68
2021/05/15 07:11:45;;;;;;;3.50;1.15;;;;;;;;;;5040370;28;20113;-69
2021/05/15 07:14:11;;;;;;;4.30;1.05;;;;;;;;;;5008788;28;20177;-68
2021/05/15 07:16:37;;;;;;;3.78;1.05;;;;;;;;;;5008536;28;20053;-69
2021/05/15 07:19:03;;;;;;;13.10;1.35;;;;;;;;;;5008665;28;20022;-69
2021/05/15 07:21:29;;;;;;;6.20;1.17;;;;;;;;;;5008557;28;20030;-68
2021/05/15 07:23:56;;;;;;;3.72;1.30;;;;;;;;;;5039944;28;20045;-69
2021/05/15 07:26:22;;;;;;;3.92;0.88;;;;;;;;;;5039946;28;20026;-73
2021/05/15 07:28:48;;;;;;;13.50;1.10;;;;;;;;;;5040120;28;20478;-74
2021/05/15 07:31:14;;;;;;;7.18;1.17;;;;;;;;;;5008551;28;20112;-81
2021/05/15 07:33:40;;;;;;;4.78;1.23;;;;;;;;;;5008858;28;20033;-83
2021/05/15 07:36:06;;;;;;;3.83;1.23;;;;;;;;;;5042893;28;20049;-84
2021/05/15 07:38:34;;;;;;;6.28;1.25;;;;;;;;;;5012163;28;20026;-76
2021/05/15 07:41:00;;;;;;;4.28;1.25;;;;;;;;;;5043663;28;20033;-79
2021/05/15 07:43:26;;;;;;;3.15;0.82;;;;;;;;;;5043551;28;20042;-81
2021/05/15 07:45:56;;;;;;;6.78;1.45;;;;;;;;;;5012352;28;20083;-73
2021/05/15 07:48:29;;;;;;;6.80;1.25;;;;;;;;;;5012146;28;20075;-71
2021/05/15 07:50:59;;;;;;;7.10;1.02;;;;;;;;;;5012237;28;20030;-70
2021/05/15 07:53:26;;;;;;;4.28;1.00;;;;;;;;;;5011757;28;20502;-70
2021/05/15 07:55:52;;;;;;;4.35;1.52;;;;;;;;;;5011648;28;20042;-75
2021/05/15 07:58:19;;;;;;;6.82;2.58;;;;;;;;;;5011788;28;20033;-76
2021/05/15 08:00:45;;;;;;;16.92;11.77;;;;;;;;;;5011215;28;20036;-66
2021/05/15 08:03:11;;;;;;;23.15;14.73;;;;;;;;;;5012194;28;20097;-67
2021/05/15 08:05:37;;;;;;;25.02;14.68;;;;;;;;;;5012355;28;20052;-66
2021/05/15 08:08:04;;;;;;;20.40;11.93;;;;;;;;;;5010889;28;20367;-67
2021/05/15 08:10:31;;;;;;;18.95;9.70;;;;;;;;;;5010745;28;20022;-70
2021/05/15 08:12:57;;;;;;;14.82;9.18;;;;;;;;;;5011784;28;20025;-73
2021/05/15 08:15:23;;;;;;;17.05;9.05;;;;;;;;;;5009847;28;20155;-67
2021/05/15 08:17:50;;;;;;;24.88;8.88;;;;;;;;;;5028596;28;20026;-72
2021/05/15 08:20:16;;;;;;;14.13;7.68;;;;;;;;;;4998411;28;20053;-75
2021/05/15 08:22:42;;;;;;;22.92;8.40;;;;;;;;;;4991639;28;20105;-75
2021/05/15 08:25:09;;;;;;;15.85;8.02;;;;;;;;;;5010732;28;20064;-76
2021/05/15 08:27:38;;;;;;;22.63;7.95;;;;;;;;;;5042808;28;20367;-77
2021/05/15 08:30:05;;;;;;;13.88;7.65;;;;;;;;;;5011120;28;20474;-72
2021/05/15 08:32:31;;;;;;;16.27;6.53;;;;;;;;;;5042780;28;20120;-70
2021/05/15 08:34:57;;;;;;;16.30;6.88;;;;;;;;;;5010699;28;20049;-76
2021/05/15 08:37:23;;;;;;;17.42;7.43;;;;;;;;;;4991340;28;20039;-75
2021/05/15 08:39:49;;;;;;;15.73;6.75;;;;;;;;;;4990359;28;20034;-69
2021/05/15 08:42:18;;;;;;;12.85;6.28;;;;;;;;;;4989976;28;20026;-73
2021/05/15 08:44:46;;;;;;;14.60;6.90;;;;;;;;;;4990071;28;20105;-74
2021/05/15 08:47:14;;;;;;;11.93;6.47;;;;;;;;;;5023990;28;20030;-70
2021/05/15 08:49:41;;;;;;;11.90;7.00;;;;;;;;;;5029577;28;20049;-70
2021/05/15 08:52:07;;;;;;;12.23;6.82;;;;;;;;;;5030772;28;20499;-73
2021/05/15 08:54:34;;;;;;;13.93;5.82;;;;;;;;;;5030736;28;20120;-73
2021/05/15 08:57:00;;;;;;;11.27;6.18;;;;;;;;;;5030339;28;20034;-70
2021/05/15 08:59:26;;;;;;;16.00;5.60;;;;;;;;;;5023443;28;20064;-68
2021/05/15 09:01:53;;;;;;;13.15;5.75;;;;;;;;;;5011991;28;20034;-68
2021/05/15 09:04:20;;;;;;;12.30;4.88;;;;;;;;;;5012079;28;20053;-69
2021/05/15 09:06:46;;;;;;;16.38;5.80;;;;;;;;;;5011211;28;20033;-68
2021/05/15 09:09:12;;;;;;;18.45;6.68;;;;;;;;;;5011601;28;20045;-69
2021/05/15 09:11:38;;;;;;;25.02;8.45;;;;;;;;;;5004702;28;20042;-70
2021/05/15 09:14:04;;;;;;;31.58;10.13;;;;;;;;;;5030278;28;20022;-72
2021/05/15 09:16:30;;;;;;;28.60;11.13;;;;;;;;;;5005807;28;20087;-75
2021/05/15 09:19:04;;;;;;;32.53;10.65;;;;;;;;;;5014927;28;20022;-79
2021/05/15 09:21:31;;;;;;;26.83;9.73;;;;;;;;;;4991251;28;20057;-75
2021/05/15 09:23:57;;;;;;;27.27;9.25;;;;;;;;;;4990758;28;20642;-65
2021/05/15 09:26:25;;;;;;;28.80;10.50;;;;;;;;;;4991310;28;20488;-65
2021/05/15 09:28:51;;;;;;;29.80;8.65;;;;;;;;;;4991460;28;20089;-68
2021/05/15 09:31:17;;;;;;;21.40;8.35;;;;;;;;;;5042660;28;20089;-68
2021/05/15 09:33:44;;;;;;;19.90;8.00;;;;;;;;;;5010663;28;20030;-68
2021/05/15 09:36:30;;;;;;;20.48;7.95;;;;;;;;;;5010619;28;20042;-71
2021/05/15 09:39:13;;;;;;;23.90;8.80;;;;;;;;;;5012887;28;20491;-74
2021/05/15 09:41:48;;;;;;;23.60;8.13;;;;;;;;;;4991358;28;20616;-71
2021/05/15 09:44:15;;;;;;;23.30;8.35;;;;;;;;;;4995797;28;20470;-70
2021/05/15 09:46:42;;;;;;;27.05;7.40;;;;;;;;;;5018997;28;20063;-70
2021/05/15 09:49:09;;;;;;;25.35;8.05;;;;;;;;;;5030763;28;20028;-71
2021/05/15 09:51:36;;;;;;;37.78;7.97;;;;;;;;;;5018115;28;20022;-69
2021/05/15 09:54:13;;;;;;;50.45;8.60;;;;;;;;;;5029232;28;20028;-70
2021/05/15 09:56:39;;;;;;;29.02;8.38;;;;;;;;;;5008474;28;20127;-75
2021/05/15 09:59:05;;;;;;;25.20;7.38;;;;;;;;;;5029760;28;20022;-78
2021/05/15 10:01:42;;;;;;;43.53;9.25;;;;;;;;;;5042149;28;20022;-77
2021/05/15 10:04:08;;;;;;;34.22;7.75;;;;;;;;;;4996021;28;20048;-76
2021/05/15 10:06:35;;;;;;;28.60;7.47;;;;;;;;;;4990854;28;20125;-75
2021/05/15 10:09:01;;;;;;;42.90;8.68;;;;;;;;;;5022386;28;20031;-78
2021/05/15 10:11:27;;;;;;;28.38;7.68;;;;;;;;;;4990947;28;20018;-78
2021/05/15 10:13:54;;;;;;;28.30;6.80;;;;;;;;;;4989577;28;20360;-81
2021/05/15 10:16:20;;;;;;;27.13;6.50;;;;;;;;;;4990739;28;20113;-75
2021/05/15 10:18:46;;;;;;;31.50;6.40;;;;;;;;;;4989435;28;20144;-72
2021/05/15 10:21:13;;;;;;;26.48;5.85;;;;;;;;;;4990547;28;20071;-75
2021/05/15 10:23:40;;;;;;;31.88;7.63;;;;;;;;;;4990557;28;20026;-77
2021/05/15 10:26:06;;;;;;;32.80;6.30;;;;;;;;;;4989165;28;20026;-76
2021/05/15 10:28:33;;;;;;;32.97;5.93;;;;;;;;;;4988924;28;20022;-80
2021/05/15 10:31:07;;;;;;;25.17;6.10;;;;;;;;;;4990430;28;20026;-80
2021/05/15 10:33:34;;;;;;;26.45;6.45;;;;;;;;;;4989340;28;20037;-75
2021/05/15 10:36:03;;;;;;;24.80;6.13;;;;;;;;;;4990082;28;20133;-80
2021/05/15 10:38:31;;;;;;;24.67;5.45;;;;;;;;;;4990298;28;20031;-82
2021/05/15 10:41:08;;;;;;;20.80;5.22;;;;;;;;;;4990349;28;20026;-84
2021/05/15 10:43:34;;;;;;;27.08;5.45;;;;;;;;;;4990673;28;20371;-75
2021/05/15 10:46:13;;;;;;;20.10;4.25;;;;;;;;;;4990017;28;20022;-76
2021/05/15 10:48:39;;;;;;;13.45;4.68;;;;;;;;;;5028143;28;20049;-78
2021/05/15 10:51:05;;;;;;;36.70;5.00;;;;;;;;;;5022822;28;20347;-79
2021/05/15 10:53:32;;;;;;;34.22;5.78;;;;;;;;;;5009203;28;20025;-77
2021/05/15 10:56:01;;;;;;;29.90;5.65;;;;;;;;;;5007566;28;20038;-68
2021/05/15 10:58:41;;;;;;;23.98;5.20;;;;;;;;;;5009449;28;20109;-64
2021/05/15 11:01:11;;;;;;;37.92;6.32;;;;;;;;;;5009310;28;20026;-66
2021/05/15 11:03:37;;;;;;;22.00;4.60;;;;;;;;;;5008796;28;20022;-65
2021/05/15 11:06:32;;;;;;;25.23;4.95;;;;;;;;;;5007560;28;20030;-67
2021/05/15 11:09:04;;;;;;;22.98;4.28;;;;;;;;;;5014644;28;20061;-66
2021/05/15 11:11:43;;;;;;;16.23;4.40;;;;;;;;;;5038557;27;20026;-65
2021/05/15 11:14:28;;;;;;;17.50;4.47;;;;;;;;;;5007468;28;20531;-66
2021/05/15 11:17:04;;;;;;;17.25;4.35;;;;;;;;;;5007889;28;20049;-66
2021/05/15 11:19:30;;;;;;;16.40;3.97;;;;;;;;;;5040715;28;20049;-66
2021/05/15 11:21:56;;;;;;;13.70;3.55;;;;;;;;;;5008771;28;20029;-66
2021/05/15 11:24:33;;;;;;;15.55;3.55;;;;;;;;;;5009180;28;20011;-67
2021/05/15 11:27:09;;;;;;;16.52;3.65;;;;;;;;;;5009048;28;20509;-66
2021/05/15 11:29:36;;;;;;;14.48;3.55;;;;;;;;;;5009086;28;20023;-67
2021/05/15 11:32:06;;;;;;;15.02;3.55;;;;;;;;;;5040578;28;20037;-66
2021/05/15 11:34:32;;;;;;;12.13;3.47;;;;;;;;;;5008909;28;20058;-66
2021/05/15 11:36:58;;;;;;;13.27;3.08;;;;;;;;;;5008871;28;20034;-68
2021/05/15 11:39:24;;;;;;;12.32;2.90;;;;;;;;;;5009139;28;20103;-67
2021/05/15 11:42:07;;;;;;;12.30;3.45;;;;;;;;;;5008953;28;20056;-66
2021/05/15 11:44:33;;;;;;;;;;;;;;;;;;5041049;28;20595;-66
2021/05/15 11:47:00;;;;;;;13.02;2.97;;;;;;;;;;5008408;28;19905;-65
2021/05/15 11:49:30;;;;;;;12.98;3.33;;;;;;;;;;5008620;28;20030;-66
2021/05/15 11:52:00;;;;;;;10.27;2.70;;;;;;;;;;5040267;28;20479;-69
2021/05/15 11:54:26;;;;;;;9.65;2.50;;;;;;;;;;5032840;28;20030;-67
2021/05/15 11:56:52;;;;;;;9.43;2.80;;;;;;;;;;4989040;28;20117;-66
2021/05/15 11:59:19;;;;;;;9.38;2.40;;;;;;;;;;4989231;28;20027;-66
2021/05/15 12:01:45;;;;;;;6.10;2.00;;;;;;;;;;4989027;28;20064;-66
2021/05/15 12:04:27;;;;;;;6.93;2.50;;;;;;;;;;4989120;28;20142;-66
2021/05/15 12:06:57;;;;;;;8.20;2.07;;;;;;;;;;4989032;28;20030;-66
2021/05/15 12:09:23;;;;;;;6.28;2.40;;;;;;;;;;4987759;28;20048;-67
2021/05/15 12:11:57;;;;;;;7.22;2.10;;;;;;;;;;4988775;28;20030;-66
2021/05/15 12:14:23;;;;;;;10.10;1.95;;;;;;;;;;4989035;28;20019;-66
2021/05/15 12:16:49;;;;;;;10.07;2.25;;;;;;;;;;4988791;28;20035;-66
2021/05/15 12:19:19;;;;;;;6.13;2.38;;;;;;;;;;4988985;28;20030;-65
2021/05/15 12:21:55;;;;;;;6.47;2.00;;;;;;;;;;4989416;28;20033;-66
2021/05/15 12:24:21;;;;;;;7.15;1.92;;;;;;;;;;4992549;28;20604;-65
2021/05/15 12:26:47;;;;;;;8.02;2.03;;;;;;;;;;4992036;28;20034;-66
2021/05/15 12:29:13;;;;;;;5.75;2.00;;;;;;;;;;4992333;28;20395;-66
2021/05/15 12:31:42;;;;;;;8.43;2.15;;;;;;;;;;4992391;28;20026;-65
2021/05/15 12:34:08;;;;;;;5.20;2.00;;;;;;;;;;4991824;28;20479;-67
2021/05/15 12:36:38;;;;;;;6.68;1.75;;;;;;;;;;4991983;28;20038;-66
2021/05/15 12:39:08;;;;;;;5.40;2.00;;;;;;;;;;4992172;28;20105;-70
2021/05/15 12:41:36;;;;;;;4.03;1.50;;;;;;;;;;4990771;28;20083;-68
2021/05/15 12:44:02;;;;;;;5.68;1.30;;;;;;;;;;4992034;28;20015;-67
2021/05/15 12:46:30;;;;;;;4.55;1.40;;;;;;;;;;4991858;28;20101;-67
2021/05/15 12:48:58;;;;;;;5.13;1.50;;;;;;;;;;4991988;28;20030;-67
2021/05/15 12:51:43;;;;;;;4.60;1.52;;;;;;;;;;4999130;28;20057;-67
2021/05/15 12:54:13;;;;;;;6.50;1.60;;;;;;;;;;5011440;28;20139;-67
2021/05/15 12:56:39;;;;;;;4.70;1.63;;;;;;;;;;5011379;28;20367;-66
2021/05/15 12:59:07;;;;;;;6.47;1.60;;;;;;;;;;5011369;28;20022;-67
2021/05/15 13:01:33;;;;;;;4.85;1.67;;;;;;;;;;5042993;28;20470;-67
2021/05/15 13:03:59;;;;;;;4.75;1.30;;;;;;;;;;5011272;28;20113;-66
2021/05/15 13:06:26;;;;;;;3.75;1.52;;;;;;;;;;5011421;28;20668;-67
2021/05/15 13:09:00;;;;;;;2.85;1.20;;;;;;;;;;5011100;28;20497;-67
2021/05/15 13:11:26;;;;;;;4.22;1.50;;;;;;;;;;5011104;28;20046;-66
2021/05/15 13:13:53;;;;;;;5.00;1.70;;;;;;;;;;5011045;28;20022;-67
2021/05/15 13:16:20;;;;;;;7.20;1.95;;;;;;;;;;5011207;28;20061;-66
2021/05/15 13:18:46;;;;;;;3.90;1.25;;;;;;;;;;5011101;28;20046;-67
2021/05/15 13:21:13;;;;;;;3.78;1.55;;;;;;;;;;5042814;28;20615;-68
2021/05/15 13:23:39;;;;;;;3.30;1.17;;;;;;;;;;5043034;28;20143;-67
2021/05/15 13:26:07;;;;;;;5.97;1.30;;;;;;;;;;5011270;28;20057;-66
2021/05/15 13:28:38;;;;;;;3.58;1.20;;;;;;;;;;5011112;28;20026;-67
2021/05/15 13:31:05;;;;;;;3.10;1.40;;;;;;;;;;5042568;28;20207;-66
2021/05/15 13:33:32;;;;;;;4.65;1.65;;;;;;;;;;5010898;28;20026;-67
2021/05/15 13:35:58;;;;;;;3.13;1.15;;;;;;;;;;5010891;28;20085;-68
2021/05/15 13:38:24;;;;;;;2.08;1.05;;;;;;;;;;5010959;28;20423;-67
2021/05/15 13:40:50;;;;;;;2.20;0.90;;;;;;;;;;5010879;28;20022;-67
2021/05/15 13:43:16;;;;;;;3.10;1.00;;;;;;;;;;5042783;28;20079;-67
2021/05/15 13:45:44;;;;;;;5.45;1.50;;;;;;;;;;5010712;28;20059;-66
2021/05/15 13:48:10;;;;;;;2.25;0.90;;;;;;;;;;5010886;28;20028;-67
2021/05/15 13:50:36;;;;;;;2.67;1.20;;;;;;;;;;5010629;28;20033;-66
2021/05/15 13:53:03;;;;;;;6.03;1.40;;;;;;;;;;5010836;28;20108;-68
2021/05/15 13:55:29;;;;;;;3.22;1.15;;;;;;;;;;5010759;28;20059;-66
2021/05/15 13:57:55;;;;;;;2.78;0.95;;;;;;;;;;5010586;28;20121;-66
2021/05/15 14:00:21;;;;;;;2.83;1.02;;;;;;;;;;5010700;28;20026;-67
2021/05/15 14:02:47;;;;;;;2.63;1.20;;;;;;;;;;5010458;28;20105;-66
2021/05/15 14:05:14;;;;;;;1.55;1.00;;;;;;;;;;5010431;28;20066;-67
2021/05/15 14:07:41;;;;;;;3.17;0.90;;;;;;;;;;5010301;28;20018;-67
2021/05/15 14:10:08;;;;;;;2.92;1.08;;;;;;;;;;5010015;28;20061;-67
2021/05/15 14:12:35;;;;;;;4.30;1.13;;;;;;;;;;5041489;28;20567;-67
2021/05/15 14:15:01;;;;;;;2.75;0.90;;;;;;;;;;5009969;28;20393;-67
2021/05/15 14:17:28;;;;;;;2.50;0.85;;;;;;;;;;5009960;28;20120;-68
2021/05/15 14:19:54;;;;;;;2.42;0.70;;;;;;;;;;5009947;28;20018;-67
2021/05/15 14:22:20;;;;;;;1.58;0.70;;;;;;;;;;5041668;28;20022;-67
2021/05/15 14:24:46;;;;;;;2.70;0.85;;;;;;;;;;5009921;28;20093;-67
2021/05/15 14:27:12;;;;;;;1.88;0.75;;;;;;;;;;5041482;28;20022;-67
2021/05/15 14:29:38;;;;;;;3.95;0.93;;;;;;;;;;5041375;28;20022;-68
2021/05/15 14:32:05;;;;;;;3.47;0.80;;;;;;;;;;5009642;28;20486;-67
2021/05/15 14:34:31;;;;;;;1.45;0.70;;;;;;;;;;5009844;28;20050;-67
2021/05/15 14:36:57;;;;;;;2.30;0.90;;;;;;;;;;5041547;28;20084;-67
2021/05/15 14:39:23;;;;;;;2.63;0.80;;;;;;;;;;5041317;28;20028;-66
2021/05/15 14:41:49;;;;;;;2.03;0.70;;;;;;;;;;5009404;28;20054;-67